Mount Princeton, Colorado
Current Conditions -  °F | °C
As of 2:34 AM on Thursday 18 Dec 2014 (Local Time) from K7BM Reporting Station
Overcast Overcast  
Wind Chill: 27°   Ceiling: 10000
Heat Index: 27°   Visibility: 10mi
Dew Point: 19°   Wind: 0mph
Humidity: 74%   Direction: NA
Pressure: 29.99"   Gusts: NA
Location:  38.7194°N, 106.276°W
Report Text: K7BM 180934Z AUTO 00000KT 10SM OVC100 M03/M07 A2999 RMK AO2
Loading
Personal Weather Stations






























Interactive Weather Map New forecast layout! Learn more

10-Day Weather Forecast

Advertisements
Track Severe Weather on mobile